Terminal Aerodrome Forecast
Issued by NWS

Home | Current Version | Previous Version | Graphics & Text | Print | Product List | Glossary On
Versions: 1 2 3 4 5 6 7 8 9 10 11 12 13 14 15 16 17
085
FTUS43 KIWX 012331
TAFSBN
TAF
KSBN 012331Z 0200/0224 03009KT P6SM OVC012
     FM020200 04008KT 3SM SHRA BR OVC007
     FM020700 03007KT 4SM BR OVC005
     FM021500 04008KT P6SM OVC015
     FM021900 02010KT P6SM OVC025=

USA.gov is the U.S. government's official web portal to all federal, state and local government web resources and services.